sensor_id;sensor_type;location;lat;lon;timestamp;P1;durP1;ratioP1;P2;durP2;ratioP2
47309;SDS011;33046;52.270;6.832;2023-03-12T00:00:07;6.38;;;3.15;;
47309;SDS011;33046;52.270;6.832;2023-03-12T00:02:15;4.10;;;3.00;;
47309;SDS011;33046;52.270;6.832;2023-03-12T00:04:22;3.88;;;2.75;;
47309;SDS011;33046;52.270;6.832;2023-03-12T00:06:29;5.38;;;3.00;;
47309;SDS011;33046;52.270;6.832;2023-03-12T00:08:36;4.65;;;3.30;;
47309;SDS011;33046;52.270;6.832;2023-03-12T00:10:43;5.68;;;3.58;;
47309;SDS011;33046;52.270;6.832;2023-03-12T00:12:51;7.18;;;3.33;;
47309;SDS011;33046;52.270;6.832;2023-03-12T00:14:58;4.45;;;2.92;;
47309;SDS011;33046;52.270;6.832;2023-03-12T00:17:05;3.95;;;2.95;;
47309;SDS011;33046;52.270;6.832;2023-03-12T00:19:12;4.97;;;2.70;;
47309;SDS011;33046;52.270;6.832;2023-03-12T00:21:19;3.40;;;2.72;;
47309;SDS011;33046;52.270;6.832;2023-03-12T00:23:26;6.47;;;3.15;;
47309;SDS011;33046;52.270;6.832;2023-03-12T00:25:33;6.38;;;4.32;;
47309;SDS011;33046;52.270;6.832;2023-03-12T00:27:41;5.22;;;4.03;;
47309;SDS011;33046;52.270;6.832;2023-03-12T00:29:50;4.80;;;3.13;;
47309;SDS011;33046;52.270;6.832;2023-03-12T00:31:57;4.82;;;3.88;;
47309;SDS011;33046;52.270;6.832;2023-03-12T00:34:04;3.63;;;2.70;;
47309;SDS011;33046;52.270;6.832;2023-03-12T00:36:10;5.32;;;3.05;;
47309;SDS011;33046;52.270;6.832;2023-03-12T00:38:17;7.88;;;2.90;;
47309;SDS011;33046;52.270;6.832;2023-03-12T00:40:24;6.60;;;3.92;;
47309;SDS011;33046;52.270;6.832;2023-03-12T00:42:31;5.60;;;3.80;;
47309;SDS011;33046;52.270;6.832;2023-03-12T00:44:38;6.82;;;3.92;;
47309;SDS011;33046;52.270;6.832;2023-03-12T00:46:46;4.97;;;3.50;;
47309;SDS011;33046;52.270;6.832;2023-03-12T00:48:53;6.93;;;4.03;;
47309;SDS011;33046;52.270;6.832;2023-03-12T00:51:00;5.75;;;3.63;;
47309;SDS011;33046;52.270;6.832;2023-03-12T00:53:07;4.45;;;3.10;;
47309;SDS011;33046;52.270;6.832;2023-03-12T00:55:14;4.80;;;3.95;;
47309;SDS011;33046;52.270;6.832;2023-03-12T00:57:21;6.05;;;4.45;;
47309;SDS011;33046;52.270;6.832;2023-03-12T00:59:27;8.00;;;4.93;;
47309;SDS011;33046;52.270;6.832;2023-03-12T01:01:34;5.40;;;4.00;;
47309;SDS011;33046;52.270;6.832;2023-03-12T01:03:42;8.15;;;5.00;;
47309;SDS011;33046;52.270;6.832;2023-03-12T01:05:49;9.07;;;5.60;;
47309;SDS011;33046;52.270;6.832;2023-03-12T01:07:56;7.30;;;5.07;;
47309;SDS011;33046;52.270;6.832;2023-03-12T01:10:03;11.90;;;5.43;;
47309;SDS011;33046;52.270;6.832;2023-03-12T01:12:11;8.57;;;4.95;;
47309;SDS011;33046;52.270;6.832;2023-03-12T01:14:18;8.65;;;5.50;;
47309;SDS011;33046;52.270;6.832;2023-03-12T01:16:26;9.48;;;6.40;;
47309;SDS011;33046;52.270;6.832;2023-03-12T01:18:33;8.32;;;5.82;;
47309;SDS011;33046;52.270;6.832;2023-03-12T01:20:41;9.02;;;6.07;;
47309;SDS011;33046;52.270;6.832;2023-03-12T01:22:48;7.97;;;4.68;;
47309;SDS011;33046;52.270;6.832;2023-03-12T01:24:55;6.47;;;5.35;;
47309;SDS011;33046;52.270;6.832;2023-03-12T01:27:02;6.88;;;4.80;;
47309;SDS011;33046;52.270;6.832;2023-03-12T01:29:09;5.45;;;4.68;;
47309;SDS011;33046;52.270;6.832;2023-03-12T01:31:16;8.02;;;4.85;;
47309;SDS011;33046;52.270;6.832;2023-03-12T01:33:24;8.32;;;5.28;;
47309;SDS011;33046;52.270;6.832;2023-03-12T01:35:34;6.60;;;5.20;;
47309;SDS011;33046;52.270;6.832;2023-03-12T01:37:43;7.70;;;5.55;;
47309;SDS011;33046;52.270;6.832;2023-03-12T01:39:50;6.60;;;5.55;;
47309;SDS011;33046;52.270;6.832;2023-03-12T01:41:57;8.50;;;5.53;;
47309;SDS011;33046;52.270;6.832;2023-03-12T01:44:04;7.50;;;4.60;;
47309;SDS011;33046;52.270;6.832;2023-03-12T01:48:46;13.20;;;4.90;;
47309;SDS011;33046;52.270;6.832;2023-03-12T01:50:56;7.40;;;4.80;;
47309;SDS011;33046;52.270;6.832;2023-03-12T01:53:05;9.30;;;4.25;;
47309;SDS011;33046;52.270;6.832;2023-03-12T01:55:13;9.07;;;4.95;;
47309;SDS011;33046;52.270;6.832;2023-03-12T01:57:25;9.02;;;4.80;;
47309;SDS011;33046;52.270;6.832;2023-03-12T01:59:37;6.93;;;4.30;;
47309;SDS011;33046;52.270;6.832;2023-03-12T02:01:47;6.22;;;4.22;;
47309;SDS011;33046;52.270;6.832;2023-03-12T02:03:55;7.88;;;3.55;;
47309;SDS011;33046;52.270;6.832;2023-03-12T02:06:05;8.00;;;5.05;;
47309;SDS011;33046;52.270;6.832;2023-03-12T02:08:18;15.25;;;5.03;;
47309;SDS011;33046;52.270;6.832;2023-03-12T02:10:25;8.85;;;4.55;;
47309;SDS011;33046;52.270;6.832;2023-03-12T02:12:32;6.65;;;4.50;;
47309;SDS011;33046;52.270;6.832;2023-03-12T02:14:39;6.25;;;5.35;;
47309;SDS011;33046;52.270;6.832;2023-03-12T02:16:46;14.23;;;4.47;;
47309;SDS011;33046;52.270;6.832;2023-03-12T02:18:53;7.57;;;5.35;;
47309;SDS011;33046;52.270;6.832;2023-03-12T02:21:04;8.73;;;4.97;;
47309;SDS011;33046;52.270;6.832;2023-03-12T02:23:23;7.40;;;4.10;;
47309;SDS011;33046;52.270;6.832;2023-03-12T02:25:36;8.70;;;5.03;;
47309;SDS011;33046;52.270;6.832;2023-03-12T02:27:45;7.80;;;4.30;;
47309;SDS011;33046;52.270;6.832;2023-03-12T02:29:52;9.95;;;4.95;;
47309;SDS011;33046;52.270;6.832;2023-03-12T02:31:59;9.77;;;6.07;;
47309;SDS011;33046;52.270;6.832;2023-03-12T02:34:08;9.13;;;5.80;;
47309;SDS011;33046;52.270;6.832;2023-03-12T02:36:15;8.07;;;5.13;;
47309;SDS011;33046;52.270;6.832;2023-03-12T02:38:27;6.20;;;5.15;;
47309;SDS011;33046;52.270;6.832;2023-03-12T02:40:42;10.43;;;5.50;;
47309;SDS011;33046;52.270;6.832;2023-03-12T02:42:52;10.18;;;4.35;;
47309;SDS011;33046;52.270;6.832;2023-03-12T02:45:00;7.43;;;5.00;;
47309;SDS011;33046;52.270;6.832;2023-03-12T02:47:08;7.78;;;4.63;;
47309;SDS011;33046;52.270;6.832;2023-03-12T02:49:16;9.52;;;4.45;;
47309;SDS011;33046;52.270;6.832;2023-03-12T02:51:25;8.15;;;4.30;;
47309;SDS011;33046;52.270;6.832;2023-03-12T02:53:32;10.10;;;4.40;;
47309;SDS011;33046;52.270;6.832;2023-03-12T02:55:39;9.13;;;5.28;;
47309;SDS011;33046;52.270;6.832;2023-03-12T02:57:47;8.95;;;5.70;;
47309;SDS011;33046;52.270;6.832;2023-03-12T02:59:54;9.35;;;6.25;;
47309;SDS011;33046;52.270;6.832;2023-03-12T03:02:01;6.60;;;4.55;;
47309;SDS011;33046;52.270;6.832;2023-03-12T03:04:09;8.70;;;4.75;;
47309;SDS011;33046;52.270;6.832;2023-03-12T03:06:16;7.97;;;4.50;;
47309;SDS011;33046;52.270;6.832;2023-03-12T03:08:23;9.93;;;5.00;;
47309;SDS011;33046;52.270;6.832;2023-03-12T03:10:30;8.63;;;4.47;;
47309;SDS011;33046;52.270;6.832;2023-03-12T03:12:37;7.20;;;4.50;;
47309;SDS011;33046;52.270;6.832;2023-03-12T03:14:46;10.98;;;5.75;;
47309;SDS011;33046;52.270;6.832;2023-03-12T03:16:54;6.88;;;3.75;;
47309;SDS011;33046;52.270;6.832;2023-03-12T03:19:01;9.98;;;4.75;;
47309;SDS011;33046;52.270;6.832;2023-03-12T03:21:08;7.07;;;5.45;;
47309;SDS011;33046;52.270;6.832;2023-03-12T03:23:16;6.82;;;4.78;;
47309;SDS011;33046;52.270;6.832;2023-03-12T03:25:22;7.00;;;4.70;;
47309;SDS011;33046;52.270;6.832;2023-03-12T03:27:29;9.05;;;4.80;;
47309;SDS011;33046;52.270;6.832;2023-03-12T03:29:37;9.40;;;4.80;;
47309;SDS011;33046;52.270;6.832;2023-03-12T03:31:45;6.47;;;4.78;;
47309;SDS011;33046;52.270;6.832;2023-03-12T03:33:52;10.40;;;6.18;;
47309;SDS011;33046;52.270;6.832;2023-03-12T03:35:59;11.00;;;7.25;;
47309;SDS011;33046;52.270;6.832;2023-03-12T03:38:09;10.55;;;8.20;;
47309;SDS011;33046;52.270;6.832;2023-03-12T03:40:17;8.85;;;6.05;;
47309;SDS011;33046;52.270;6.832;2023-03-12T03:42:24;10.32;;;6.30;;
47309;SDS011;33046;52.270;6.832;2023-03-12T03:44:31;11.85;;;6.45;;
47309;SDS011;33046;52.270;6.832;2023-03-12T03:46:39;8.23;;;6.28;;
47309;SDS011;33046;52.270;6.832;2023-03-12T03:48:49;12.50;;;10.20;;
47309;SDS011;33046;52.270;6.832;2023-03-12T03:50:58;10.02;;;8.30;;
47309;SDS011;33046;52.270;6.832;2023-03-12T03:53:05;11.30;;;8.27;;
47309;SDS011;33046;52.270;6.832;2023-03-12T03:55:13;10.82;;;7.15;;
47309;SDS011;33046;52.270;6.832;2023-03-12T03:57:20;12.93;;;5.45;;
47309;SDS011;33046;52.270;6.832;2023-03-12T03:59:27;8.07;;;4.55;;
47309;SDS011;33046;52.270;6.832;2023-03-12T04:01:34;6.95;;;3.80;;
47309;SDS011;33046;52.270;6.832;2023-03-12T04:03:41;5.38;;;3.70;;
47309;SDS011;33046;52.270;6.832;2023-03-12T04:05:53;8.43;;;3.72;;
47309;SDS011;33046;52.270;6.832;2023-03-12T04:08:01;5.53;;;3.75;;
47309;SDS011;33046;52.270;6.832;2023-03-12T04:10:10;5.75;;;3.05;;
47309;SDS011;33046;52.270;6.832;2023-03-12T04:12:17;6.07;;;3.88;;
47309;SDS011;33046;52.270;6.832;2023-03-12T04:14:25;7.97;;;3.28;;
47309;SDS011;33046;52.270;6.832;2023-03-12T04:16:31;6.63;;;3.20;;
47309;SDS011;33046;52.270;6.832;2023-03-12T04:18:40;5.55;;;3.08;;
47309;SDS011;33046;52.270;6.832;2023-03-12T04:20:47;7.68;;;3.03;;
47309;SDS011;33046;52.270;6.832;2023-03-12T04:22:56;8.85;;;2.78;;
47309;SDS011;33046;52.270;6.832;2023-03-12T04:25:05;5.47;;;2.90;;
47309;SDS011;33046;52.270;6.832;2023-03-12T04:27:13;6.60;;;2.83;;
47309;SDS011;33046;52.270;6.832;2023-03-12T04:29:20;7.10;;;3.30;;
47309;SDS011;33046;52.270;6.832;2023-03-12T04:31:26;8.02;;;3.03;;
47309;SDS011;33046;52.270;6.832;2023-03-12T04:33:34;4.72;;;2.70;;
47309;SDS011;33046;52.270;6.832;2023-03-12T04:35:45;4.00;;;2.90;;
47309;SDS011;33046;52.270;6.832;2023-03-12T04:37:59;5.82;;;3.58;;
47309;SDS011;33046;52.270;6.832;2023-03-12T04:40:07;4.75;;;2.75;;
47309;SDS011;33046;52.270;6.832;2023-03-12T04:42:15;8.75;;;4.45;;
47309;SDS011;33046;52.270;6.832;2023-03-12T04:44:25;7.15;;;4.53;;
47309;SDS011;33046;52.270;6.832;2023-03-12T04:46:31;5.85;;;3.30;;
47309;SDS011;33046;52.270;6.832;2023-03-12T04:48:39;6.43;;;2.90;;
47309;SDS011;33046;52.270;6.832;2023-03-12T04:50:45;4.38;;;3.47;;
47309;SDS011;33046;52.270;6.832;2023-03-12T04:52:53;7.80;;;3.55;;
47309;SDS011;33046;52.270;6.832;2023-03-12T04:55:01;6.85;;;3.35;;
47309;SDS011;33046;52.270;6.832;2023-03-12T04:57:08;6.10;;;3.42;;
47309;SDS011;33046;52.270;6.832;2023-03-12T04:59:15;7.22;;;3.60;;
47309;SDS011;33046;52.270;6.832;2023-03-12T05:01:25;7.68;;;3.80;;
47309;SDS011;33046;52.270;6.832;2023-03-12T05:03:33;11.10;;;5.53;;
47309;SDS011;33046;52.270;6.832;2023-03-12T05:05:40;5.40;;;3.55;;
47309;SDS011;33046;52.270;6.832;2023-03-12T05:07:48;10.38;;;3.85;;
47309;SDS011;33046;52.270;6.832;2023-03-12T05:09:55;5.53;;;2.92;;
47309;SDS011;33046;52.270;6.832;2023-03-12T05:12:03;7.75;;;4.22;;
47309;SDS011;33046;52.270;6.832;2023-03-12T05:14:11;7.43;;;4.07;;
47309;SDS011;33046;52.270;6.832;2023-03-12T05:16:19;6.78;;;3.95;;
47309;SDS011;33046;52.270;6.832;2023-03-12T05:18:26;5.90;;;4.30;;
47309;SDS011;33046;52.270;6.832;2023-03-12T05:20:33;7.93;;;4.05;;
47309;SDS011;33046;52.270;6.832;2023-03-12T05:22:40;7.25;;;4.60;;
47309;SDS011;33046;52.270;6.832;2023-03-12T05:24:47;7.78;;;4.53;;
47309;SDS011;33046;52.270;6.832;2023-03-12T05:26:56;6.63;;;4.45;;
47309;SDS011;33046;52.270;6.832;2023-03-12T05:29:04;8.05;;;4.13;;
47309;SDS011;33046;52.270;6.832;2023-03-12T05:31:12;7.05;;;4.03;;
47309;SDS011;33046;52.270;6.832;2023-03-12T05:33:21;5.28;;;4.60;;
47309;SDS011;33046;52.270;6.832;2023-03-12T05:35:28;6.60;;;3.50;;
47309;SDS011;33046;52.270;6.832;2023-03-12T05:37:35;8.05;;;3.97;;
47309;SDS011;33046;52.270;6.832;2023-03-12T05:39:42;6.53;;;3.70;;
47309;SDS011;33046;52.270;6.832;2023-03-12T05:41:50;8.10;;;3.70;;
47309;SDS011;33046;52.270;6.832;2023-03-12T05:43:58;7.72;;;3.55;;
47309;SDS011;33046;52.270;6.832;2023-03-12T05:46:08;7.18;;;4.28;;
47309;SDS011;33046;52.270;6.832;2023-03-12T05:48:16;7.65;;;4.07;;
47309;SDS011;33046;52.270;6.832;2023-03-12T05:50:23;10.05;;;5.10;;
47309;SDS011;33046;52.270;6.832;2023-03-12T05:52:30;9.50;;;4.25;;
47309;SDS011;33046;52.270;6.832;2023-03-12T05:54:38;4.95;;;3.35;;
47309;SDS011;33046;52.270;6.832;2023-03-12T05:56:45;6.63;;;3.65;;
47309;SDS011;33046;52.270;6.832;2023-03-12T05:58:51;8.20;;;4.13;;
47309;SDS011;33046;52.270;6.832;2023-03-12T06:01:00;6.90;;;3.60;;
47309;SDS011;33046;52.270;6.832;2023-03-12T06:03:09;4.38;;;2.63;;
47309;SDS011;33046;52.270;6.832;2023-03-12T06:05:16;4.18;;;3.70;;
47309;SDS011;33046;52.270;6.832;2023-03-12T06:07:24;4.95;;;4.10;;
47309;SDS011;33046;52.270;6.832;2023-03-12T06:09:31;4.90;;;3.35;;
47309;SDS011;33046;52.270;6.832;2023-03-12T06:11:38;4.80;;;3.42;;
47309;SDS011;33046;52.270;6.832;2023-03-12T06:13:45;5.80;;;3.53;;
47309;SDS011;33046;52.270;6.832;2023-03-12T06:15:52;5.15;;;3.33;;
47309;SDS011;33046;52.270;6.832;2023-03-12T06:17:59;6.38;;;4.32;;
47309;SDS011;33046;52.270;6.832;2023-03-12T06:20:08;8.45;;;3.53;;
47309;SDS011;33046;52.270;6.832;2023-03-12T06:22:15;6.20;;;3.30;;
47309;SDS011;33046;52.270;6.832;2023-03-12T06:24:22;7.25;;;3.65;;
47309;SDS011;33046;52.270;6.832;2023-03-12T06:26:35;8.40;;;3.25;;
47309;SDS011;33046;52.270;6.832;2023-03-12T06:28:42;4.90;;;2.65;;
47309;SDS011;33046;52.270;6.832;2023-03-12T06:30:51;4.32;;;2.92;;
47309;SDS011;33046;52.270;6.832;2023-03-12T06:32:58;5.70;;;3.60;;
47309;SDS011;33046;52.270;6.832;2023-03-12T06:35:05;4.68;;;3.40;;
47309;SDS011;33046;52.270;6.832;2023-03-12T06:37:14;4.30;;;2.95;;
47309;SDS011;33046;52.270;6.832;2023-03-12T06:39:21;7.78;;;3.13;;
47309;SDS011;33046;52.270;6.832;2023-03-12T06:41:29;6.35;;;3.47;;
47309;SDS011;33046;52.270;6.832;2023-03-12T06:43:37;11.32;;;3.90;;
47309;SDS011;33046;52.270;6.832;2023-03-12T06:45:44;9.57;;;3.78;;
47309;SDS011;33046;52.270;6.832;2023-03-12T06:47:51;8.70;;;4.03;;
47309;SDS011;33046;52.270;6.832;2023-03-12T06:49:58;5.05;;;2.92;;
47309;SDS011;33046;52.270;6.832;2023-03-12T06:52:06;6.03;;;2.60;;
47309;SDS011;33046;52.270;6.832;2023-03-12T06:54:13;4.75;;;2.90;;
47309;SDS011;33046;52.270;6.832;2023-03-12T06:56:19;5.28;;;2.90;;
47309;SDS011;33046;52.270;6.832;2023-03-12T06:58:26;6.07;;;2.58;;
47309;SDS011;33046;52.270;6.832;2023-03-12T07:00:33;7.95;;;2.78;;
47309;SDS011;33046;52.270;6.832;2023-03-12T07:02:40;10.73;;;3.75;;
47309;SDS011;33046;52.270;6.832;2023-03-12T07:04:47;5.97;;;2.80;;
47309;SDS011;33046;52.270;6.832;2023-03-12T07:06:54;8.35;;;3.05;;
47309;SDS011;33046;52.270;6.832;2023-03-12T07:09:02;7.18;;;3.50;;
47309;SDS011;33046;52.270;6.832;2023-03-12T07:11:09;6.97;;;2.97;;
47309;SDS011;33046;52.270;6.832;2023-03-12T07:13:16;5.25;;;2.80;;
47309;SDS011;33046;52.270;6.832;2023-03-12T07:15:23;4.78;;;3.10;;
47309;SDS011;33046;52.270;6.832;2023-03-12T07:17:30;5.97;;;2.20;;
47309;SDS011;33046;52.270;6.832;2023-03-12T07:19:37;8.27;;;2.50;;
47309;SDS011;33046;52.270;6.832;2023-03-12T07:21:43;5.53;;;3.85;;
47309;SDS011;33046;52.270;6.832;2023-03-12T07:23:50;4.88;;;2.15;;
47309;SDS011;33046;52.270;6.832;2023-03-12T07:25:59;5.97;;;2.05;;
47309;SDS011;33046;52.270;6.832;2023-03-12T07:28:06;7.43;;;2.58;;
47309;SDS011;33046;52.270;6.832;2023-03-12T07:30:13;10.10;;;4.70;;
47309;SDS011;33046;52.270;6.832;2023-03-12T07:32:20;8.55;;;3.15;;
47309;SDS011;33046;52.270;6.832;2023-03-12T07:34:27;4.65;;;2.40;;
47309;SDS011;33046;52.270;6.832;2023-03-12T07:36:34;5.55;;;2.60;;
47309;SDS011;33046;52.270;6.832;2023-03-12T07:38:41;6.63;;;3.03;;
47309;SDS011;33046;52.270;6.832;2023-03-12T07:40:49;4.75;;;1.92;;
47309;SDS011;33046;52.270;6.832;2023-03-12T07:42:58;5.05;;;1.88;;
47309;SDS011;33046;52.270;6.832;2023-03-12T07:45:05;7.55;;;2.05;;
47309;SDS011;33046;52.270;6.832;2023-03-12T07:47:12;8.07;;;2.10;;
47309;SDS011;33046;52.270;6.832;2023-03-12T07:49:29;7.00;;;2.15;;
47309;SDS011;33046;52.270;6.832;2023-03-12T07:51:35;7.45;;;2.85;;
47309;SDS011;33046;52.270;6.832;2023-03-12T07:53:42;5.57;;;3.20;;
47309;SDS011;33046;52.270;6.832;2023-03-12T07:55:49;7.05;;;2.33;;
47309;SDS011;33046;52.270;6.832;2023-03-12T07:57:58;6.70;;;3.35;;
47309;SDS011;33046;52.270;6.832;2023-03-12T08:00:05;7.80;;;3.95;;
47309;SDS011;33046;52.270;6.832;2023-03-12T08:02:16;5.38;;;3.28;;
47309;SDS011;33046;52.270;6.832;2023-03-12T08:04:23;5.03;;;2.88;;
47309;SDS011;33046;52.270;6.832;2023-03-12T08:06:30;6.18;;;3.58;;
47309;SDS011;33046;52.270;6.832;2023-03-12T08:08:37;6.10;;;3.67;;
47309;SDS011;33046;52.270;6.832;2023-03-12T08:10:44;7.07;;;3.13;;
47309;SDS011;33046;52.270;6.832;2023-03-12T08:12:50;6.72;;;3.00;;
47309;SDS011;33046;52.270;6.832;2023-03-12T08:14:59;3.75;;;2.92;;
47309;SDS011;33046;52.270;6.832;2023-03-12T08:17:05;5.47;;;4.07;;
47309;SDS011;33046;52.270;6.832;2023-03-12T08:19:12;6.85;;;4.35;;
47309;SDS011;33046;52.270;6.832;2023-03-12T08:21:19;4.75;;;3.17;;
47309;SDS011;33046;52.270;6.832;2023-03-12T08:23:26;8.13;;;3.40;;
47309;SDS011;33046;52.270;6.832;2023-03-12T08:25:33;4.50;;;3.03;;
47309;SDS011;33046;52.270;6.832;2023-03-12T08:27:40;5.00;;;2.60;;
47309;SDS011;33046;52.270;6.832;2023-03-12T08:29:47;6.43;;;2.97;;
47309;SDS011;33046;52.270;6.832;2023-03-12T08:31:55;7.38;;;3.80;;
47309;SDS011;33046;52.270;6.832;2023-03-12T08:34:09;7.13;;;2.50;;
47309;SDS011;33046;52.270;6.832;2023-03-12T08:36:16;5.35;;;4.07;;
47309;SDS011;33046;52.270;6.832;2023-03-12T08:38:24;4.15;;;2.70;;
47309;SDS011;33046;52.270;6.832;2023-03-12T08:40:31;4.35;;;2.33;;
47309;SDS011;33046;52.270;6.832;2023-03-12T08:42:38;7.72;;;3.65;;
47309;SDS011;33046;52.270;6.832;2023-03-12T08:44:45;5.90;;;2.78;;
47309;SDS011;33046;52.270;6.832;2023-03-12T08:46:51;5.70;;;2.88;;
47309;SDS011;33046;52.270;6.832;2023-03-12T08:49:00;8.77;;;2.97;;
47309;SDS011;33046;52.270;6.832;2023-03-12T08:51:06;4.32;;;2.67;;
47309;SDS011;33046;52.270;6.832;2023-03-12T08:53:13;6.88;;;2.40;;
47309;SDS011;33046;52.270;6.832;2023-03-12T08:55:20;5.80;;;3.80;;
47309;SDS011;33046;52.270;6.832;2023-03-12T08:57:27;8.73;;;3.17;;
47309;SDS011;33046;52.270;6.832;2023-03-12T08:59:34;4.80;;;2.92;;
47309;SDS011;33046;52.270;6.832;2023-03-12T09:01:41;8.15;;;2.78;;
47309;SDS011;33046;52.270;6.832;2023-03-12T09:03:49;5.57;;;3.25;;
47309;SDS011;33046;52.270;6.832;2023-03-12T09:06:04;7.32;;;2.78;;
47309;SDS011;33046;52.270;6.832;2023-03-12T09:08:12;5.57;;;3.30;;
47309;SDS011;33046;52.270;6.832;2023-03-12T09:10:19;5.57;;;3.45;;
47309;SDS011;33046;52.270;6.832;2023-03-12T09:12:26;6.90;;;4.53;;
47309;SDS011;33046;52.270;6.832;2023-03-12T09:14:33;8.85;;;4.10;;
47309;SDS011;33046;52.270;6.832;2023-03-12T09:17:00;6.93;;;5.60;;
47309;SDS011;33046;52.270;6.832;2023-03-12T09:19:06;8.00;;;7.20;;
47309;SDS011;33046;52.270;6.832;2023-03-12T09:21:15;9.93;;;6.25;;
47309;SDS011;33046;52.270;6.832;2023-03-12T09:23:21;9.57;;;5.25;;
47309;SDS011;33046;52.270;6.832;2023-03-12T09:25:28;8.80;;;5.60;;
47309;SDS011;33046;52.270;6.832;2023-03-12T09:27:35;8.98;;;5.88;;
47309;SDS011;33046;52.270;6.832;2023-03-12T09:29:42;9.52;;;7.22;;
47309;SDS011;33046;52.270;6.832;2023-03-12T09:32:04;8.80;;;6.60;;
47309;SDS011;33046;52.270;6.832;2023-03-12T09:34:11;11.40;;;5.78;;
47309;SDS011;33046;52.270;6.832;2023-03-12T09:36:19;9.18;;;6.38;;
47309;SDS011;33046;52.270;6.832;2023-03-12T09:38:26;11.07;;;6.03;;
47309;SDS011;33046;52.270;6.832;2023-03-12T09:40:34;10.23;;;6.75;;
47309;SDS011;33046;52.270;6.832;2023-03-12T09:42:43;9.35;;;7.82;;
47309;SDS011;33046;52.270;6.832;2023-03-12T09:44:55;7.28;;;6.57;;
47309;SDS011;33046;52.270;6.832;2023-03-12T09:47:06;11.35;;;7.47;;
47309;SDS011;33046;52.270;6.832;2023-03-12T09:51:30;9.55;;;6.75;;
47309;SDS011;33046;52.270;6.832;2023-03-12T09:53:41;11.50;;;8.57;;
47309;SDS011;33046;52.270;6.832;2023-03-12T09:55:52;9.15;;;8.15;;
47309;SDS011;33046;52.270;6.832;2023-03-12T09:58:02;12.13;;;9.25;;
47309;SDS011;33046;52.270;6.832;2023-03-12T10:00:10;8.63;;;7.82;;
47309;SDS011;33046;52.270;6.832;2023-03-12T10:02:32;11.75;;;9.63;;
47309;SDS011;33046;52.270;6.832;2023-03-12T10:04:59;13.27;;;10.05;;
47309;SDS011;33046;52.270;6.832;2023-03-12T10:07:13;12.38;;;10.45;;
47309;SDS011;33046;52.270;6.832;2023-03-12T10:09:41;11.10;;;10.00;;
47309;SDS011;33046;52.270;6.832;2023-03-12T10:12:03;11.57;;;10.57;;
47309;SDS011;33046;52.270;6.832;2023-03-12T10:14:21;11.70;;;10.60;;
47309;SDS011;33046;52.270;6.832;2023-03-12T10:16:41;12.10;;;10.90;;
47309;SDS011;33046;52.270;6.832;2023-03-12T10:21:25;11.48;;;9.13;;
47309;SDS011;33046;52.270;6.832;2023-03-12T10:23:43;12.32;;;9.80;;
47309;SDS011;33046;52.270;6.832;2023-03-12T10:25:58;12.95;;;9.68;;
47309;SDS011;33046;52.270;6.832;2023-03-12T10:28:11;9.57;;;8.63;;
47309;SDS011;33046;52.270;6.832;2023-03-12T10:30:23;12.52;;;9.48;;
47309;SDS011;33046;52.270;6.832;2023-03-12T10:32:34;11.35;;;9.65;;
47309;SDS011;33046;52.270;6.832;2023-03-12T10:34:46;10.40;;;9.25;;
47309;SDS011;33046;52.270;6.832;2023-03-12T10:36:57;12.18;;;10.95;;
47309;SDS011;33046;52.270;6.832;2023-03-12T10:39:09;9.65;;;8.65;;
47309;SDS011;33046;52.270;6.832;2023-03-12T10:43:26;8.60;;;7.68;;
47309;SDS011;33046;52.270;6.832;2023-03-12T10:45:33;9.93;;;8.93;;
47309;SDS011;33046;52.270;6.832;2023-03-12T10:47:45;8.52;;;7.72;;
47309;SDS011;33046;52.270;6.832;2023-03-12T10:50:01;14.82;;;6.80;;
47309;SDS011;33046;52.270;6.832;2023-03-12T10:52:19;7.95;;;6.55;;
47309;SDS011;33046;52.270;6.832;2023-03-12T10:54:29;9.27;;;7.40;;
47309;SDS011;33046;52.270;6.832;2023-03-12T10:56:46;7.50;;;6.82;;
47309;SDS011;33046;52.270;6.832;2023-03-12T10:58:55;8.18;;;7.22;;
47309;SDS011;33046;52.270;6.832;2023-03-12T11:01:02;8.93;;;7.15;;
47309;SDS011;33046;52.270;6.832;2023-03-12T11:03:17;6.63;;;6.03;;
47309;SDS011;33046;52.270;6.832;2023-03-12T11:05:27;7.95;;;7.22;;
47309;SDS011;33046;52.270;6.832;2023-03-12T11:07:36;8.15;;;7.43;;
47309;SDS011;33046;52.270;6.832;2023-03-12T11:10:10;8.00;;;7.17;;
47309;SDS011;33046;52.270;6.832;2023-03-12T11:12:36;7.03;;;6.32;;
47309;SDS011;33046;52.270;6.832;2023-03-12T11:14:44;9.95;;;6.57;;
47309;SDS011;33046;52.270;6.832;2023-03-12T11:16:52;7.28;;;6.45;;
47309;SDS011;33046;52.270;6.832;2023-03-12T11:19:00;7.10;;;6.25;;
47309;SDS011;33046;52.270;6.832;2023-03-12T11:21:13;7.63;;;6.28;;
47309;SDS011;33046;52.270;6.832;2023-03-12T11:23:23;10.30;;;8.70;;
47309;SDS011;33046;52.270;6.832;2023-03-12T11:25:33;8.52;;;7.72;;
47309;SDS011;33046;52.270;6.832;2023-03-12T11:27:41;8.85;;;7.93;;
47309;SDS011;33046;52.270;6.832;2023-03-12T11:29:51;10.73;;;8.68;;
47309;SDS011;33046;52.270;6.832;2023-03-12T11:32:01;8.90;;;8.10;;
47309;SDS011;33046;52.270;6.832;2023-03-12T11:34:12;8.00;;;7.20;;
47309;SDS011;33046;52.270;6.832;2023-03-12T11:36:31;9.85;;;7.90;;
47309;SDS011;33046;52.270;6.832;2023-03-12T11:38:49;9.77;;;8.70;;
47309;SDS011;33046;52.270;6.832;2023-03-12T11:41:08;9.88;;;8.88;;
47309;SDS011;33046;52.270;6.832;2023-03-12T11:43:30;11.85;;;9.57;;
47309;SDS011;33046;52.270;6.832;2023-03-12T11:45:53;10.20;;;9.20;;
47309;SDS011;33046;52.270;6.832;2023-03-12T11:48:12;14.20;;;10.00;;
47309;SDS011;33046;52.270;6.832;2023-03-12T11:50:27;11.48;;;9.90;;
47309;SDS011;33046;52.270;6.832;2023-03-12T11:52:50;11.15;;;10.00;;
47309;SDS011;33046;52.270;6.832;2023-03-12T11:55:15;11.50;;;10.35;;
47309;SDS011;33046;52.270;6.832;2023-03-12T11:57:32;11.50;;;10.30;;
47309;SDS011;33046;52.270;6.832;2023-03-12T11:59:53;15.70;;;12.20;;
47309;SDS011;33046;52.270;6.832;2023-03-12T12:02:28;12.52;;;11.23;;
47309;SDS011;33046;52.270;6.832;2023-03-12T12:04:52;13.63;;;12.23;;
47309;SDS011;33046;52.270;6.832;2023-03-12T12:07:16;12.95;;;11.50;;
47309;SDS011;33046;52.270;6.832;2023-03-12T12:09:43;12.73;;;11.43;;
47309;SDS011;33046;52.270;6.832;2023-03-12T12:12:02;14.48;;;12.95;;
47309;SDS011;33046;52.270;6.832;2023-03-12T12:14:30;16.50;;;12.75;;
47309;SDS011;33046;52.270;6.832;2023-03-12T12:16:56;16.30;;;12.32;;
47309;SDS011;33046;52.270;6.832;2023-03-12T12:19:17;15.90;;;12.43;;
47309;SDS011;33046;52.270;6.832;2023-03-12T12:21:40;16.63;;;12.63;;
47309;SDS011;33046;52.270;6.832;2023-03-12T12:23:58;18.40;;;13.48;;
47309;SDS011;33046;52.270;6.832;2023-03-12T12:26:12;18.30;;;11.75;;
47309;SDS011;33046;52.270;6.832;2023-03-12T12:31:00;18.40;;;12.90;;
47309;SDS011;33046;52.270;6.832;2023-03-12T12:33:20;17.98;;;12.75;;
47309;SDS011;33046;52.270;6.832;2023-03-12T12:35:38;21.85;;;13.43;;
47309;SDS011;33046;52.270;6.832;2023-03-12T12:37:47;17.95;;;13.27;;
47309;SDS011;33046;52.270;6.832;2023-03-12T12:40:00;17.98;;;13.77;;
47309;SDS011;33046;52.270;6.832;2023-03-12T12:42:15;22.02;;;14.52;;
47309;SDS011;33046;52.270;6.832;2023-03-12T12:44:26;18.10;;;15.02;;
47309;SDS011;33046;52.270;6.832;2023-03-12T12:46:40;20.45;;;14.52;;
47309;SDS011;33046;52.270;6.832;2023-03-12T12:48:50;20.45;;;14.35;;
47309;SDS011;33046;52.270;6.832;2023-03-12T12:50:59;21.40;;;16.50;;
47309;SDS011;33046;52.270;6.832;2023-03-12T12:53:13;22.85;;;16.13;;
47309;SDS011;33046;52.270;6.832;2023-03-12T12:55:26;24.98;;;16.38;;
47309;SDS011;33046;52.270;6.832;2023-03-12T12:57:37;24.33;;;16.55;;
47309;SDS011;33046;52.270;6.832;2023-03-12T12:59:49;25.15;;;17.20;;
47309;SDS011;33046;52.270;6.832;2023-03-12T13:02:14;23.25;;;16.25;;
47309;SDS011;33046;52.270;6.832;2023-03-12T13:04:25;22.98;;;17.38;;
47309;SDS011;33046;52.270;6.832;2023-03-12T13:09:12;23.95;;;17.77;;
47309;SDS011;33046;52.270;6.832;2023-03-12T13:11:22;32.33;;;19.23;;